createdAt,value
2019-03-08T18:27:56.069Z,75.531006
2019-03-08T18:28:07.987Z,75.634766
2019-03-08T18:28:20.340Z,75.323486
2019-03-08T18:28:33.562Z,75.219727
2019-03-08T18:28:46.208Z,75.634766
2019-03-08T18:28:58.621Z,75.738525
2019-03-08T18:29:11.229Z,75.946045
2019-03-08T18:29:24.041Z,75.878906
2019-03-08T18:29:36.310Z,75.982666
2019-03-08T18:29:48.314Z,76.184082
2019-03-08T18:30:00.351Z,76.391602
2019-03-08T18:30:12.212Z,76.495361
2019-03-08T18:30:24.164Z,76.702881
2019-03-08T18:30:37.179Z,76.599121
2019-03-08T18:30:48.280Z,76.599121
2019-03-08T18:31:00.208Z,76.599121
2019-03-08T18:31:12.100Z,76.806641
2019-03-08T18:31:24.000Z,76.9104
2019-03-08T18:31:35.951Z,77.01416
2019-03-08T18:31:47.915Z,77.11792
2019-03-08T18:31:59.783Z,77.325439
2019-03-08T18:32:11.819Z,77.532959
2019-03-08T18:32:23.953Z,77.740479
2019-03-08T18:32:36.587Z,77.941895
2019-03-08T18:32:48.558Z,78.045654
2019-03-08T18:33:00.463Z,77.941895
2019-03-08T18:33:12.391Z,77.874756
2019-03-08T18:33:24.393Z,77.874756
2019-03-08T18:33:36.294Z,78.082275
2019-03-08T18:33:48.343Z,78.082275
2019-03-08T18:34:00.893Z,77.978516
2019-03-08T18:34:13.013Z,77.770996
2019-03-08T18:34:24.918Z,77.667236
2019-03-08T18:34:36.922Z,77.770996
2019-03-08T18:34:48.881Z,77.874756
2019-03-08T18:35:00.793Z,77.978516
2019-03-08T18:35:12.867Z,78.289795
2019-03-08T18:35:24.906Z,78.497314
2019-03-08T18:35:36.852Z,78.601074
2019-03-08T18:35:48.835Z,78.601074
2019-03-08T18:36:00.712Z,78.601074
2019-03-08T18:36:12.645Z,78.601074
2019-03-08T18:36:24.582Z,78.393555
2019-03-08T18:36:36.495Z,78.289795
2019-03-08T18:36:48.694Z,78.393555
2019-03-08T18:37:01.035Z,78.497314
2019-03-08T18:37:13.091Z,78.497314
2019-03-08T18:37:25.203Z,78.601074
2019-03-08T18:37:37.592Z,78.601074
2019-03-08T18:37:49.606Z,78.601074
2019-03-08T18:38:01.622Z,78.912354
2019-03-08T18:38:13.528Z,78.912354
2019-03-08T18:38:25.433Z,79.016113
2019-03-08T18:38:37.403Z,79.016113
2019-03-08T18:38:49.311Z,79.119873
2019-03-08T18:39:01.190Z,79.223633
2019-03-08T18:39:13.077Z,79.223633
2019-03-08T18:39:25.007Z,79.327393
2019-03-08T18:39:37.047Z,79.431152
2019-03-08T18:39:48.999Z,79.431152
2019-03-08T18:40:00.981Z,79.431152
2019-03-08T18:40:12.970Z,79.431152
2019-03-08T18:40:24.879Z,79.431152
2019-03-08T18:40:36.840Z,79.632568
2019-03-08T18:40:48.783Z,79.840088
2019-03-08T18:41:00.719Z,80.047607
2019-03-08T18:41:12.763Z,79.943848
2019-03-08T18:41:24.712Z,79.840088
2019-03-08T18:41:36.687Z,79.840088
2019-03-08T18:41:48.803Z,79.840088
2019-03-08T18:42:00.673Z,79.840088
2019-03-08T18:42:12.557Z,79.943848
2019-03-08T18:42:24.533Z,80.047607
2019-03-08T18:42:36.467Z,80.151367
2019-03-08T18:42:48.397Z,80.151367
2019-03-08T18:43:00.313Z,80.255127
2019-03-08T18:43:12.349Z,80.358887
2019-03-08T18:43:24.229Z,80.358887
2019-03-08T18:43:36.167Z,80.255127
2019-03-08T18:43:48.086Z,80.255127
2019-03-08T18:44:00.145Z,80.255127
2019-03-08T18:44:12.023Z,80.499268
2019-03-08T18:44:23.922Z,80.462646
2019-03-08T18:44:36.337Z,80.499268
2019-03-08T18:44:48.321Z,80.358887
2019-03-08T18:45:00.303Z,80.395508
2019-03-08T18:45:12.283Z,80.358887
2019-03-08T18:45:24.337Z,80.603027
2019-03-08T18:45:36.267Z,80.566406
2019-03-08T18:45:48.136Z,80.499268
2019-03-08T18:46:00.097Z,80.358887
2019-03-08T18:46:11.978Z,80.291748
2019-03-08T18:46:24.148Z,80.255127
2019-03-08T18:46:36.189Z,80.255127
2019-03-08T18:46:48.293Z,80.255127
2019-03-08T18:47:00.964Z,80.151367
2019-03-08T18:47:13.656Z,80.151367
2019-03-08T18:47:25.627Z,80.151367
2019-03-08T18:47:37.903Z,80.358887
2019-03-08T18:47:50.079Z,80.358887
2019-03-08T18:48:02.126Z,80.358887
2019-03-08T18:48:14.138Z,80.358887
2019-03-08T18:48:26.158Z,80.151367
2019-03-08T18:48:38.043Z,80.047607
2019-03-08T18:48:49.991Z,80.047607
2019-03-08T18:49:01.953Z,80.047607
2019-03-08T18:49:14.095Z,80.151367
2019-03-08T18:49:26.304Z,80.255127
2019-03-08T18:49:38.242Z,80.151367
2019-03-08T18:49:50.250Z,80.047607
2019-03-08T18:50:02.377Z,79.943848
2019-03-08T18:50:14.364Z,79.840088
2019-03-08T18:50:26.467Z,79.528809
2019-03-08T18:50:38.383Z,79.431152
2019-03-08T18:50:50.356Z,79.431152
2019-03-08T18:51:02.359Z,79.431152
2019-03-08T18:51:14.421Z,79.119873
2019-03-08T18:51:26.433Z,79.119873
2019-03-08T18:51:38.423Z,79.016113
2019-03-08T18:51:50.680Z,78.704834
2019-03-08T18:52:02.902Z,78.601074
2019-03-08T18:52:15.074Z,78.704834
2019-03-08T18:52:27.309Z,78.704834
2019-03-08T18:52:39.374Z,78.601074
2019-03-08T18:52:51.353Z,78.704834
2019-03-08T18:53:03.857Z,78.912354
2019-03-08T18:53:16.437Z,78.704834
2019-03-08T18:53:28.815Z,78.393555
2019-03-08T18:53:40.890Z,78.289795
2019-03-08T18:53:52.942Z,78.289795
2019-03-08T18:54:04.977Z,78.497314
2019-03-08T18:54:17.042Z,78.704834
2019-03-08T18:54:29.029Z,78.875732
2019-03-08T18:54:41.136Z,79.119873
2019-03-08T18:54:53.189Z,78.979492
2019-03-08T18:55:05.196Z,78.601074
2019-03-08T18:55:17.226Z,78.356934
2019-03-08T18:55:29.603Z,78.253174
2019-03-08T18:55:42.102Z,78.356934
2019-03-08T18:55:54.436Z,78.253174
2019-03-08T18:56:06.623Z,78.149414
2019-03-08T18:56:18.711Z,78.149414
2019-03-08T18:56:30.742Z,78.045654
2019-03-08T18:56:42.723Z,77.941895
2019-03-08T18:56:54.627Z,78.149414
2019-03-08T18:57:07.332Z,78.356934
2019-03-08T18:57:19.557Z,78.253174
2019-03-08T18:57:32.278Z,77.838135
2019-03-08T18:57:44.375Z,77.532959
2019-03-08T18:57:56.707Z,77.636719
2019-03-08T18:58:09.133Z,77.532959
2019-03-08T18:58:21.362Z,77.532959
2019-03-08T18:58:33.817Z,77.838135
2019-03-08T18:58:46.114Z,77.941895
2019-03-08T18:58:58.201Z,78.149414
2019-03-08T18:59:10.221Z,77.941895
2019-03-08T18:59:22.355Z,78.045654
2019-03-08T18:59:34.434Z,78.460693
2019-03-08T18:59:46.466Z,78.875732
2019-03-08T18:59:58.401Z,79.187012
2019-03-08T19:00:10.449Z,79.083252
2019-03-08T19:00:22.317Z,78.668213
2019-03-08T19:00:35.059Z,78.253174
2019-03-08T19:00:47.024Z,77.941895
2019-03-08T19:00:59.226Z,78.045654
2019-03-08T19:01:11.405Z,78.460693
2019-03-08T19:01:23.530Z,78.979492
2019-03-08T19:01:35.578Z,79.187012
2019-03-08T19:01:47.600Z,79.394531
2019-03-08T19:01:59.546Z,79.187012
2019-03-08T19:02:11.408Z,78.356934
2019-03-08T19:02:23.339Z,77.11792
2019-03-08T19:02:35.208Z,77.01416
2019-03-08T19:02:47.142Z,77.532959
2019-03-08T19:02:59.252Z,77.838135
2019-03-08T19:03:11.135Z,77.740479
2019-03-08T19:03:23.077Z,77.838135
2019-03-08T19:03:35.254Z,78.253174
2019-03-08T19:03:47.525Z,78.253174
2019-03-08T19:03:59.441Z,78.045654
2019-03-08T19:04:11.350Z,77.941895
2019-03-08T19:04:23.252Z,78.149414
2019-03-08T19:04:35.108Z,78.253174
2019-03-08T19:04:47.257Z,78.253174
2019-03-08T19:04:59.352Z,78.253174
2019-03-08T19:05:11.465Z,78.253174
2019-03-08T19:05:23.444Z,78.253174
2019-03-08T19:05:35.324Z,78.460693
2019-03-08T19:05:47.262Z,78.356934
2019-03-08T19:05:59.323Z,77.838135
2019-03-08T19:06:11.278Z,77.740479
2019-03-08T19:06:23.142Z,77.838135
2019-03-08T19:06:35.309Z,78.045654
2019-03-08T19:06:47.306Z,77.941895
2019-03-08T19:06:59.410Z,77.532959
2019-03-08T19:07:11.258Z,77.22168
2019-03-08T19:07:23.298Z,77.11792
2019-03-08T19:07:35.203Z,76.9104
2019-03-08T19:07:47.083Z,77.11792
2019-03-08T19:07:58.989Z,77.429199
2019-03-08T19:08:11.265Z,77.325439
2019-03-08T19:08:23.485Z,77.01416
2019-03-08T19:08:35.537Z,76.9104
2019-03-08T19:08:47.462Z,76.9104
2019-03-08T19:08:59.409Z,77.11792
2019-03-08T19:09:11.330Z,77.22168
2019-03-08T19:09:23.314Z,77.325439
2019-03-08T19:09:35.276Z,77.11792
2019-03-08T19:09:47.216Z,77.01416
2019-03-08T19:09:59.234Z,77.22168
2019-03-08T19:10:11.132Z,77.429199
2019-03-08T19:10:22.992Z,77.22168
2019-03-08T19:10:34.866Z,77.01416
2019-03-08T19:10:47.160Z,77.01416
2019-03-08T19:10:59.161Z,77.22168
2019-03-08T19:11:11.238Z,77.22168
2019-03-08T19:11:23.177Z,77.22168
2019-03-08T19:11:35.125Z,77.429199
2019-03-08T19:11:47.238Z,77.838135
2019-03-08T19:12:00.265Z,78.149414
2019-03-08T19:12:12.127Z,78.253174
2019-03-08T19:12:24.316Z,78.253174
2019-03-08T19:12:36.238Z,78.253174
2019-03-08T19:12:48.161Z,78.253174
2019-03-08T19:13:00.120Z,78.460693
2019-03-08T19:13:12.026Z,78.668213
2019-03-08T19:13:24.182Z,77.941895
2019-03-08T19:13:36.456Z,76.599121
2019-03-08T19:13:48.479Z,75.982666
2019-03-08T19:14:00.453Z,75.982666
2019-03-08T19:14:12.513Z,76.184082
2019-03-08T19:14:24.374Z,76.599121
2019-03-08T19:14:36.423Z,77.325439
2019-03-08T19:14:48.370Z,77.838135
2019-03-08T19:15:00.346Z,78.045654
2019-03-08T19:15:12.176Z,77.838135
2019-03-08T19:15:24.041Z,77.838135
2019-03-08T19:15:35.956Z,78.045654
2019-03-08T19:15:47.818Z,78.253174
2019-03-08T19:15:59.773Z,77.838135
2019-03-08T19:16:11.777Z,77.532959
2019-03-08T19:16:23.737Z,77.636719
2019-03-08T19:16:35.767Z,78.045654
2019-03-08T19:16:47.760Z,78.186035
2019-03-08T19:16:59.690Z,77.532959
2019-03-08T19:17:11.884Z,77.325439
2019-03-08T19:17:24.850Z,77.01416
2019-03-08T19:17:36.759Z,76.9104
2019-03-08T19:17:48.764Z,76.806641
2019-03-08T19:18:00.677Z,77.22168
2019-03-08T19:18:12.573Z,77.429199
2019-03-08T19:18:24.488Z,77.325439
2019-03-08T19:18:37.433Z,77.22168
2019-03-08T19:18:49.460Z,77.11792
2019-03-08T19:19:01.360Z,77.429199
2019-03-08T19:19:13.285Z,77.636719
2019-03-08T19:19:25.201Z,77.532959
2019-03-08T19:19:37.310Z,77.636719
2019-03-08T19:19:49.210Z,78.045654
2019-03-08T19:20:01.107Z,78.253174
2019-03-08T19:20:12.997Z,77.941895
2019-03-08T19:20:24.857Z,77.636719
2019-03-08T19:20:36.826Z,77.429199
2019-03-08T19:20:48.760Z,77.22168
2019-03-08T19:21:00.678Z,77.22168
2019-03-08T19:21:12.980Z,77.325439
2019-03-08T19:21:25.278Z,77.532959
2019-03-08T19:21:37.304Z,77.325439
2019-03-08T19:21:49.451Z,77.325439
2019-03-08T19:22:01.581Z,77.429199
2019-03-08T19:22:13.634Z,77.532959
2019-03-08T19:22:26.868Z,77.838135
2019-03-08T19:22:38.676Z,77.838135
2019-03-08T19:22:50.672Z,77.941895
2019-03-08T19:23:02.589Z,78.045654
2019-03-08T19:23:14.642Z,78.149414
2019-03-08T19:23:26.725Z,78.289795
2019-03-08T19:23:38.669Z,78.289795
2019-03-08T19:23:50.678Z,78.289795
2019-03-08T19:24:02.679Z,78.393555
2019-03-08T19:24:14.555Z,78.289795
2019-03-08T19:24:26.536Z,78.289795
2019-03-08T19:24:38.491Z,78.186035
2019-03-08T19:24:50.438Z,78.186035
2019-03-08T19:25:02.358Z,78.497314
2019-03-08T19:25:14.322Z,78.704834
2019-03-08T19:25:26.336Z,78.704834
2019-03-08T19:25:38.384Z,78.808594
2019-03-08T19:25:50.394Z,78.912354
2019-03-08T19:26:02.352Z,79.016113
2019-03-08T19:26:14.341Z,79.016113
2019-03-08T19:26:26.361Z,78.912354
2019-03-08T19:26:38.296Z,79.016113
2019-03-08T19:26:50.278Z,78.704834
2019-03-08T19:27:02.362Z,78.601074
2019-03-08T19:27:14.299Z,78.430176
2019-03-08T19:27:26.367Z,78.393555
2019-03-08T19:27:38.332Z,78.533936
2019-03-08T19:27:50.445Z,78.533936
2019-03-08T19:28:02.443Z,78.637695
2019-03-08T19:28:14.478Z,78.948975
2019-03-08T19:28:26.529Z,79.260254
2019-03-08T19:28:38.510Z,79.467773
2019-03-08T19:28:50.490Z,79.56543
2019-03-08T19:29:02.460Z,79.772949
2019-03-08T19:29:14.532Z,79.876709
2019-03-08T19:29:26.570Z,79.980469
2019-03-08T19:29:39.163Z,80.084229
2019-03-08T19:29:50.489Z,80.291748
2019-03-08T19:30:02.482Z,80.291748
2019-03-08T19:30:14.435Z,80.395508
2019-03-08T19:30:26.437Z,80.499268
2019-03-08T19:30:38.371Z,80.603027
2019-03-08T19:30:50.450Z,80.810547
2019-03-08T19:31:03.439Z,80.914307
2019-03-08T19:31:15.401Z,81.054688
2019-03-08T19:31:27.411Z,81.262207
2019-03-08T19:31:39.495Z,81.365967
2019-03-08T19:31:51.545Z,81.469727
2019-03-08T19:32:03.510Z,81.469727
2019-03-08T19:32:15.579Z,81.573486
2019-03-08T19:32:27.711Z,81.781006
2019-03-08T19:32:39.741Z,81.781006
2019-03-08T19:32:51.686Z,81.781006
2019-03-08T19:33:03.647Z,81.677246
2019-03-08T19:33:15.655Z,81.781006
2019-03-08T19:33:27.627Z,81.988525
2019-03-08T19:33:39.611Z,81.988525
2019-03-08T19:33:51.690Z,82.092285
2019-03-08T19:34:03.803Z,82.189941
2019-03-08T19:34:15.745Z,82.189941
2019-03-08T19:34:27.670Z,82.336426
2019-03-08T19:34:39.690Z,82.440186
2019-03-08T19:34:51.699Z,82.543945
2019-03-08T19:35:03.625Z,82.647705
2019-03-08T19:35:15.582Z,82.647705
2019-03-08T19:35:27.531Z,82.751465
2019-03-08T19:35:39.806Z,82.855225
2019-03-08T19:35:51.787Z,82.952881
2019-03-08T19:36:03.713Z,82.952881
2019-03-08T19:36:15.717Z,82.952881
2019-03-08T19:36:27.665Z,83.056641
2019-03-08T19:36:39.634Z,83.1604
2019-03-08T19:36:51.706Z,83.36792
2019-03-08T19:37:03.697Z,83.36792
2019-03-08T19:37:15.648Z,83.36792
2019-03-08T19:37:27.557Z,83.410645
2019-03-08T19:37:39.563Z,83.410645
2019-03-08T19:37:51.532Z,83.514404
2019-03-08T19:38:03.467Z,83.618164
2019-03-08T19:38:15.361Z,83.825684
2019-03-08T19:38:27.287Z,83.825684
2019-03-08T19:38:39.226Z,83.825684
2019-03-08T19:38:51.226Z,83.825684
2019-03-08T19:39:03.124Z,83.825684
2019-03-08T19:39:15.098Z,83.825684
2019-03-08T19:39:27.173Z,83.825684
2019-03-08T19:39:39.168Z,83.929443
2019-03-08T19:39:51.121Z,83.929443
2019-03-08T19:40:04.070Z,83.825684
2019-03-08T19:40:16.008Z,83.825684
2019-03-08T19:40:28.063Z,83.825684
2019-03-08T19:40:39.990Z,83.825684
2019-03-08T19:40:51.947Z,83.721924
2019-03-08T19:41:03.944Z,83.721924
2019-03-08T19:41:15.900Z,83.825684
2019-03-08T19:41:27.823Z,83.929443
2019-03-08T19:41:39.771Z,83.929443
2019-03-08T19:41:51.703Z,83.929443
2019-03-08T19:42:03.677Z,83.929443
2019-03-08T19:42:15.544Z,83.929443
2019-03-08T19:42:27.499Z,83.966064
2019-03-08T19:42:39.447Z,83.966064
2019-03-08T19:42:51.420Z,83.966064
2019-03-08T19:43:03.382Z,84.069824
2019-03-08T19:43:15.385Z,84.069824
2019-03-08T19:43:27.388Z,84.173584
2019-03-08T19:43:39.347Z,84.277344
2019-03-08T19:43:51.259Z,84.381104
2019-03-08T19:44:03.229Z,84.484863
2019-03-08T19:44:15.189Z,84.588623
2019-03-08T19:44:27.203Z,84.588623
2019-03-08T19:44:39.194Z,84.588623
2019-03-08T19:44:52.108Z,84.588623
2019-03-08T19:45:04.072Z,84.484863
2019-03-08T19:45:16.057Z,84.484863
2019-03-08T19:45:27.974Z,84.381104
2019-03-08T19:45:39.884Z,84.484863
2019-03-08T19:45:51.861Z,84.484863
2019-03-08T19:46:03.780Z,84.484863
2019-03-08T19:46:15.756Z,84.588623
2019-03-08T19:46:27.840Z,84.588623
2019-03-08T19:46:39.796Z,84.692383
2019-03-08T19:46:51.736Z,84.692383
2019-03-08T19:47:03.648Z,84.692383
2019-03-08T19:47:15.602Z,84.796143
2019-03-08T19:47:27.544Z,84.899902
2019-03-08T19:47:39.484Z,84.899902
2019-03-08T19:47:51.426Z,84.796143
2019-03-08T19:48:03.340Z,84.692383
2019-03-08T19:48:15.328Z,84.692383
2019-03-08T19:48:27.245Z,84.692383
2019-03-08T19:48:40.168Z,84.692383
2019-03-08T19:48:52.126Z,84.796143
2019-03-08T19:49:04.032Z,84.796143
2019-03-08T19:49:16.019Z,84.796143
2019-03-08T19:49:28.106Z,84.692383
2019-03-08T19:49:40.088Z,84.692383
2019-03-08T19:49:52.672Z,84.588623
2019-03-08T19:50:04.981Z,84.625244
2019-03-08T19:50:17.079Z,84.625244
2019-03-08T19:50:29.094Z,84.625244
2019-03-08T19:50:41.060Z,84.625244
2019-03-08T19:50:53.078Z,84.625244
2019-03-08T19:51:05.571Z,84.625244
2019-03-08T19:51:18.369Z,84.521484
2019-03-08T19:51:30.336Z,84.521484
2019-03-08T19:51:42.369Z,84.521484
2019-03-08T19:51:54.313Z,84.625244
2019-03-08T19:52:06.370Z,84.625244
2019-03-08T19:52:18.255Z,84.625244
2019-03-08T19:52:30.189Z,84.729004
2019-03-08T19:52:42.192Z,84.832764
2019-03-08T19:52:54.165Z,84.832764
2019-03-08T19:53:06.234Z,84.936523
2019-03-08T19:53:18.246Z,84.936523
2019-03-08T19:53:30.307Z,84.936523
2019-03-08T19:53:42.489Z,84.936523
2019-03-08T19:53:54.654Z,84.936523
2019-03-08T19:54:06.662Z,84.936523
2019-03-08T19:54:18.834Z,84.832764
2019-03-08T19:54:30.745Z,84.729004
2019-03-08T19:54:42.945Z,84.729004
2019-03-08T19:54:55.081Z,84.832764
2019-03-08T19:55:06.978Z,84.936523
2019-03-08T19:55:18.948Z,84.936523
2019-03-08T19:55:30.920Z,85.040283
2019-03-08T19:55:42.996Z,85.040283
2019-03-08T19:55:54.972Z,85.040283
2019-03-08T19:56:06.925Z,84.936523
2019-03-08T19:56:18.866Z,84.936523
2019-03-08T19:56:30.844Z,84.936523
2019-03-08T19:56:42.808Z,84.936523
2019-03-08T19:56:54.754Z,84.936523
2019-03-08T19:57:06.779Z,84.936523
2019-03-08T19:57:18.675Z,84.936523
2019-03-08T19:57:30.630Z,84.936523
2019-03-08T19:57:42.601Z,84.936523
2019-03-08T19:57:54.548Z,84.832764
2019-03-08T19:58:06.530Z,84.832764
2019-03-08T19:58:18.492Z,84.936523
2019-03-08T19:58:30.420Z,84.832764
2019-03-08T19:58:42.378Z,84.625244
2019-03-08T19:58:54.317Z,84.521484
2019-03-08T19:59:06.198Z,84.521484
2019-03-08T19:59:18.206Z,84.521484
2019-03-08T19:59:30.121Z,84.417725
2019-03-08T19:59:42.098Z,84.417725
2019-03-08T19:59:54.132Z,84.417725
2019-03-08T20:00:06.157Z,84.521484
2019-03-08T20:00:18.099Z,84.521484
2019-03-08T20:00:30.124Z,84.521484
2019-03-08T20:00:42.071Z,84.625244
2019-03-08T20:00:54.040Z,84.625244
2019-03-08T20:01:05.993Z,84.729004
2019-03-08T20:01:18.027Z,84.729004
2019-03-08T20:01:30.030Z,84.729004
2019-03-08T20:01:42.092Z,84.729004
2019-03-08T20:01:54.084Z,84.729004
2019-03-08T20:02:06.000Z,84.832764
2019-03-08T20:02:17.988Z,84.832764
2019-03-08T20:02:29.902Z,84.832764
2019-03-08T20:02:42.847Z,84.832764
2019-03-08T20:02:54.803Z,84.936523
2019-03-08T20:03:06.851Z,84.936523
2019-03-08T20:03:19.821Z,84.832764
2019-03-08T20:03:31.831Z,84.832764
2019-03-08T20:03:43.799Z,84.729004
2019-03-08T20:03:55.764Z,84.832764
2019-03-08T20:04:07.793Z,84.832764
2019-03-08T20:04:19.689Z,84.729004
2019-03-08T20:04:31.671Z,84.875488
2019-03-08T20:04:43.852Z,84.875488
2019-03-08T20:04:55.906Z,84.875488
2019-03-08T20:05:08.011Z,84.875488
2019-03-08T20:05:19.953Z,84.875488
2019-03-08T20:05:31.891Z,84.771729
2019-03-08T20:05:43.831Z,84.771729
2019-03-08T20:05:55.740Z,84.667969
2019-03-08T20:06:08.637Z,84.667969
2019-03-08T20:06:20.573Z,84.771729
2019-03-08T20:06:32.531Z,84.771729
2019-03-08T20:06:44.549Z,84.667969
2019-03-08T20:06:56.547Z,84.667969
2019-03-08T20:07:08.465Z,84.667969
2019-03-08T20:07:20.388Z,84.667969
2019-03-08T20:07:32.332Z,84.667969
2019-03-08T20:07:44.338Z,84.667969
2019-03-08T20:07:56.392Z,84.564209
2019-03-08T20:08:08.473Z,84.564209
2019-03-08T20:08:20.445Z,84.460449
2019-03-08T20:08:32.570Z,84.460449
2019-03-08T20:08:44.909Z,84.460449
2019-03-08T20:08:56.621Z,84.460449
2019-03-08T20:09:08.592Z,84.460449
2019-03-08T20:09:20.521Z,84.356689
2019-03-08T20:09:33.735Z,84.356689
2019-03-08T20:09:45.771Z,84.356689
2019-03-08T20:09:57.794Z,84.356689
2019-03-08T20:10:09.740Z,84.460449
2019-03-08T20:10:21.759Z,84.460449
2019-03-08T20:10:33.768Z,84.564209
2019-03-08T20:10:45.677Z,84.564209
2019-03-08T20:10:57.666Z,84.667969
2019-03-08T20:11:09.612Z,84.564209
2019-03-08T20:11:21.693Z,84.460449
2019-03-08T20:11:33.659Z,84.356689
2019-03-08T20:11:45.642Z,84.25293
2019-03-08T20:11:57.739Z,84.356689
2019-03-08T20:12:09.707Z,84.25293
2019-03-08T20:12:21.708Z,84.14917
2019-03-08T20:12:33.588Z,84.14917
2019-03-08T20:12:45.490Z,84.14917
2019-03-08T20:12:57.521Z,84.14917
2019-03-08T20:13:09.612Z,84.04541
2019-03-08T20:13:21.574Z,84.04541
2019-03-08T20:13:33.846Z,84.04541
2019-03-08T20:13:46.014Z,83.94165
2019-03-08T20:13:57.937Z,83.94165
2019-03-08T20:14:09.872Z,83.837891
2019-03-08T20:14:22.097Z,83.630371
2019-03-08T20:14:34.142Z,83.526611
2019-03-08T20:14:46.111Z,83.422852
2019-03-08T20:14:58.069Z,83.319092
2019-03-08T20:15:10.026Z,83.319092
2019-03-08T20:15:21.947Z,83.319092
2019-03-08T20:15:34.060Z,83.215332
2019-03-08T20:15:46.016Z,83.215332
2019-03-08T20:15:58.495Z,83.215332
2019-03-08T20:16:10.645Z,83.215332
2019-03-08T20:16:22.766Z,83.111572
2019-03-08T20:16:34.914Z,83.007812
2019-03-08T20:16:46.983Z,82.904053
2019-03-08T20:16:59.211Z,82.800293
2019-03-08T20:17:11.369Z,82.800293
2019-03-08T20:17:23.486Z,82.904053
2019-03-08T20:17:35.591Z,82.904053
2019-03-08T20:17:47.597Z,82.904053
2019-03-08T20:17:59.725Z,83.007812
2019-03-08T20:18:11.823Z,83.007812
2019-03-08T20:18:24.951Z,83.007812
2019-03-08T20:18:37.206Z,82.904053
2019-03-08T20:18:49.332Z,82.800293
2019-03-08T20:19:01.417Z,82.800293
2019-03-08T20:19:13.639Z,82.904053
2019-03-08T20:19:26.310Z,82.904053
2019-03-08T20:19:38.544Z,83.007812
2019-03-08T20:19:50.679Z,82.861328
2019-03-08T20:20:02.727Z,82.757568
2019-03-08T20:20:15.133Z,82.653809
2019-03-08T20:20:28.304Z,82.653809
2019-03-08T20:20:40.353Z,82.653809
2019-03-08T20:20:52.536Z,82.653809
2019-03-08T20:21:04.536Z,82.653809
2019-03-08T20:21:16.734Z,82.653809
2019-03-08T20:21:28.986Z,82.550049
2019-03-08T20:21:41.239Z,82.653809
2019-03-08T20:21:53.582Z,82.757568
2019-03-08T20:22:05.824Z,82.757568
2019-03-08T20:22:17.987Z,82.757568
2019-03-08T20:22:30.074Z,82.757568
2019-03-08T20:22:42.030Z,82.653809
2019-03-08T20:22:54.354Z,82.653809
2019-03-08T20:23:06.989Z,82.757568
2019-03-08T20:23:19.892Z,82.861328
2019-03-08T20:23:32.838Z,82.861328
2019-03-08T20:23:45.905Z,82.861328
2019-03-08T20:23:59.000Z,82.861328
2019-03-08T20:24:11.337Z,82.757568
2019-03-08T20:24:23.626Z,82.757568
2019-03-08T20:24:37.044Z,82.653809
2019-03-08T20:24:49.561Z,82.653809
2019-03-08T20:25:01.937Z,82.653809
2019-03-08T20:25:14.794Z,82.653809
2019-03-08T20:25:27.494Z,82.653809
2019-03-08T20:25:40.392Z,82.757568
2019-03-08T20:25:52.851Z,82.757568
2019-03-08T20:26:05.151Z,82.757568
2019-03-08T20:26:17.539Z,82.757568
2019-03-08T20:26:29.788Z,82.861328
2019-03-08T20:26:42.427Z,82.861328
2019-03-08T20:26:54.648Z,82.861328
2019-03-08T20:27:06.886Z,82.861328
2019-03-08T20:27:19.333Z,82.861328
2019-03-08T20:27:31.712Z,82.861328
2019-03-08T20:27:44.849Z,82.861328
2019-03-08T20:27:57.377Z,82.861328
2019-03-08T20:28:09.948Z,82.861328
2019-03-08T20:28:23.271Z,82.861328
2019-03-08T20:28:36.037Z,82.861328
2019-03-08T20:28:48.344Z,82.861328
2019-03-08T20:29:00.846Z,82.965088
2019-03-08T20:29:13.457Z,82.861328
2019-03-08T20:29:25.641Z,82.757568
2019-03-08T20:29:38.123Z,82.757568
2019-03-08T20:29:51.293Z,82.757568
2019-03-08T20:30:03.491Z,82.757568
2019-03-08T20:30:16.398Z,82.757568
2019-03-08T20:30:28.664Z,82.757568
2019-03-08T20:30:41.035Z,82.757568
2019-03-08T20:30:53.544Z,82.861328
2019-03-08T20:31:06.083Z,82.757568
2019-03-08T20:31:18.585Z,82.653809
2019-03-08T20:31:30.896Z,82.653809
2019-03-08T20:31:44.262Z,82.653809
2019-03-08T20:31:56.800Z,82.653809
2019-03-08T20:32:08.999Z,82.757568
2019-03-08T20:32:21.360Z,82.757568
2019-03-08T20:32:33.372Z,82.861328
2019-03-08T20:32:45.624Z,82.861328
2019-03-08T20:32:57.789Z,82.861328
2019-03-08T20:33:09.973Z,82.861328
2019-03-08T20:33:22.246Z,82.861328
2019-03-08T20:33:34.633Z,82.757568
2019-03-08T20:33:46.810Z,82.861328
2019-03-08T20:33:59.006Z,82.965088
2019-03-08T20:34:13.281Z,82.965088
2019-03-08T20:34:23.544Z,82.965088
2019-03-08T20:34:35.825Z,82.965088
2019-03-08T20:34:48.390Z,82.965088
2019-03-08T20:35:00.805Z,82.965088
2019-03-08T20:35:12.794Z,83.068848
2019-03-08T20:35:24.739Z,83.068848
2019-03-08T20:35:36.712Z,83.068848
2019-03-08T20:35:48.888Z,82.861328
2019-03-08T20:36:00.832Z,82.757568
2019-03-08T20:36:12.873Z,82.861328
2019-03-08T20:36:24.842Z,82.965088
2019-03-08T20:36:36.789Z,83.068848
2019-03-08T20:36:48.687Z,83.068848
2019-03-08T20:37:00.768Z,83.068848
2019-03-08T20:37:12.743Z,83.068848
2019-03-08T20:37:24.879Z,83.068848
2019-03-08T20:37:36.850Z,83.068848
2019-03-08T20:37:48.815Z,83.068848
2019-03-08T20:38:00.767Z,83.068848
2019-03-08T20:38:12.723Z,83.068848
2019-03-08T20:38:24.674Z,83.172607
2019-03-08T20:38:37.243Z,83.172607
2019-03-08T20:38:49.616Z,83.068848
2019-03-08T20:39:02.182Z,83.068848
2019-03-08T20:39:15.838Z,83.172607
2019-03-08T20:39:26.540Z,83.068848
2019-03-08T20:39:38.586Z,83.068848
2019-03-08T20:39:50.790Z,83.068848
2019-03-08T20:40:03.433Z,83.068848
2019-03-08T20:40:15.498Z,83.172607
2019-03-08T20:40:27.677Z,83.172607
2019-03-08T20:40:39.681Z,83.172607
2019-03-08T20:40:51.632Z,83.172607
2019-03-08T20:41:03.668Z,83.068848
2019-03-08T20:41:15.824Z,83.068848
2019-03-08T20:41:28.025Z,83.068848
2019-03-08T20:41:40.005Z,83.068848
2019-03-08T20:41:52.342Z,82.965088
2019-03-08T20:42:04.551Z,82.861328
2019-03-08T20:42:16.790Z,82.861328
2019-03-08T20:42:28.954Z,82.861328
2019-03-08T20:42:41.093Z,82.861328
2019-03-08T20:42:53.275Z,82.965088
2019-03-08T20:43:05.323Z,83.068848
2019-03-08T20:43:17.494Z,83.172607
2019-03-08T20:43:29.705Z,83.068848
2019-03-08T20:43:42.261Z,82.861328
2019-03-08T20:43:54.284Z,82.861328
2019-03-08T20:44:06.385Z,82.861328
2019-03-08T20:44:18.642Z,82.861328
2019-03-08T20:44:30.903Z,82.861328
2019-03-08T20:44:42.930Z,82.861328
2019-03-08T20:44:54.928Z,82.824707
2019-03-08T20:45:07.125Z,82.824707
2019-03-08T20:45:19.145Z,82.824707
2019-03-08T20:45:31.521Z,82.861328
2019-03-08T20:45:44.129Z,82.824707
2019-03-08T20:45:56.418Z,82.861328
2019-03-08T20:46:09.122Z,82.861328